Time;durP1;ratioP1;P1;durP2;ratioP2;P2;SDS_P1;SDS_P2;PMS_P1;PMS_P2;Temp;Humidity;BMP_temperature;BMP_pressure;BME280_temperature;BME280_humidity;BME280_pressure;Samples;Min_cycle;Max_cycle;Signal;HPM_P1;HPM_P2
2022/08/09 00:00:19;;;;;;;;;;;;;;;28.58;36.82;94677.75;5040561;28;9057;-63
2022/08/09 00:02:47;;;;;;;;;;;;;;;28.58;36.52;94675.00;5034859;28;7214;-62
2022/08/09 00:05:15;;;;;;;;;;;;;;;28.56;36.49;94674.75;5022260;28;7345;-63
2022/08/09 00:07:46;;;;;;;;;;;;;;;28.57;36.58;94681.03;5022740;28;8754;-63
2022/08/09 00:10:19;;;;;;;;;;;;;;;28.56;36.92;94685.81;5042494;28;9135;-63
2022/08/09 00:13:01;;;;;;;;;;;;;;;28.56;36.58;94680.28;5039739;28;9224;-63
2022/08/09 00:15:46;;;;;;;;;;;;;;;28.55;36.43;94678.03;5024726;28;9094;-63
2022/08/09 00:18:38;;;;;;;;;;;;;;;28.53;36.56;94689.66;5022373;28;7038;-63
2022/08/09 00:21:06;;;;;;;;;;;;;;;28.52;36.67;94685.38;4964853;28;7062;-63
2022/08/09 00:23:33;;;;;;;;;;;;;;;28.51;36.82;94683.13;4967101;28;7166;-63
2022/08/09 00:26:01;;;;;;;;;;;;;;;28.50;36.60;94684.41;4953877;28;7155;-63
2022/08/09 00:28:36;;;;;;;;;;;;;;;28.47;36.70;94683.41;4964788;28;9047;-63
2022/08/09 00:31:22;;;;;;;;;;;;;;;28.49;37.06;94688.44;4954678;28;7273;-63
2022/08/09 00:33:52;;;;;;;;;;;;;;;28.48;36.82;94693.22;4969299;28;9035;-63
2022/08/09 00:36:23;;;;;;;;;;;;;;;28.46;36.62;94690.25;4951389;28;7285;-62
2022/08/09 00:38:52;;;;;;;;;;;;;;;28.45;36.84;94691.50;4953067;28;8776;-63
2022/08/09 00:41:30;;;;;;;;;;;;;;;28.45;36.72;94685.97;4967188;28;8309;-62
2022/08/09 00:44:25;;;;;;;;;;;;;;;28.46;36.93;94692.25;4970113;28;7436;-63
2022/08/09 00:47:01;;;;;;;;;;;;;;;28.43;37.41;94682.97;4905623;29;9037;-63
2022/08/09 00:49:29;;;;;;;;;;;;;;;28.42;36.62;94680.75;4885181;29;7001;-62
2022/08/09 00:51:58;;;;;;;;;;;;;;;28.42;36.40;94677.97;4882887;29;9020;-62
2022/08/09 00:54:24;;;;;;;;;;;;;;;28.41;36.62;94673.69;4881670;29;7266;-63
2022/08/09 00:56:53;;;;;;;;;;;;;;;28.40;36.29;94674.97;4882764;28;9407;-63
2022/08/09 00:59:23;;;;;;;;;;;;;;;28.40;36.36;94675.72;4937103;28;9377;-63
2022/08/09 01:01:53;;;;;;;;;;;;;;;28.40;36.50;94683.28;4922827;28;9845;-62
2022/08/09 01:04:36;;;;;;;;;;;;;;;28.38;36.28;94676.25;4945116;28;7242;-63
2022/08/09 01:07:29;;;;;;;;;;;;;;;28.38;36.49;94685.81;4947038;28;6860;-63
2022/08/09 01:10:01;;;;;;;;;;;;;;;28.36;36.29;94673.25;4949218;28;7411;-63
2022/08/09 01:12:54;;;;;;;;;;;;;;;28.36;36.36;94678.06;4948392;28;7288;-63
2022/08/09 01:15:27;;;;;;;;;;;;;;;28.34;36.23;94675.78;4922516;28;7243;-63
2022/08/09 01:18:31;;;;;;;;;;;;;;;28.33;36.44;94679.84;4933661;28;6868;-63
2022/08/09 01:21:03;;;;;;;;;;;;;;;28.32;36.28;94675.56;4948888;28;7244;-63
2022/08/09 01:24:00;;;;;;;;;;;;;;;28.32;36.48;94678.34;4981892;28;7243;-63
2022/08/09 01:27:04;;;;;;;;;;;;;;;28.32;36.19;94680.34;5016441;28;9174;-63
2022/08/09 01:29:54;;;;;;;;;;;;;;;28.30;35.97;94680.88;4945605;28;7248;-63
2022/08/09 01:32:29;;;;;;;;;;;;;;;28.29;36.33;94684.16;4962102;28;9031;-63
2022/08/09 01:35:01;;;;;;;;;;;;;;;28.28;36.27;94688.19;4945930;28;7650;-63
2022/08/09 01:37:40;;;;;;;;;;;;;;;28.28;36.29;94688.19;4961815;28;9240;-62
2022/08/09 01:40:27;;;;;;;;;;;;;;;28.28;36.26;94685.44;4963313;28;7649;-63
2022/08/09 01:42:55;;;;;;;;;;;;;;;28.25;36.24;94684.44;4960861;28;7018;-63
2022/08/09 01:45:23;;;;;;;;;;;;;;;28.24;35.92;94690.50;4953427;28;7222;-62
2022/08/09 01:47:51;;;;;;;;;;;;;;;28.24;36.11;94687.75;4956460;28;8823;-63
2022/08/09 01:50:29;;;;;;;;;;;;;;;28.22;36.31;94685.50;4964128;28;9656;-63
2022/08/09 01:53:05;;;;;;;;;;;;;;;28.22;35.98;94684.75;4961676;28;7401;-63
2022/08/09 01:55:37;;;;;;;;;;;;;;;28.21;36.30;94692.28;4952116;28;9399;-63
2022/08/09 01:58:07;;;;;;;;;;;;;;;28.20;35.97;94690.06;4948353;28;7037;-63
2022/08/09 02:00:52;;;;;;;;;;;;;;;28.20;35.96;94692.81;4960615;28;7252;-63
2022/08/09 02:03:22;;;;;;;;;;;;;;;28.18;35.99;94689.84;4950813;28;6982;-62
2022/08/09 02:06:12;;;;;;;;;;;;;;;28.16;35.92;94689.59;4993885;28;9215;-63
2022/08/09 02:09:09;;;;;;;;;;;;;;;28.17;35.86;94691.09;5023361;28;9195;-63
2022/08/09 02:11:49;;;;;;;;;;;;;;;28.16;35.81;94692.38;4940292;28;7226;-63
2022/08/09 02:14:27;;;;;;;;;;;;;;;28.14;35.59;94689.38;4944291;28;7178;-63
2022/08/09 02:16:58;;;;;;;;;;;;;;;28.13;35.63;94688.63;4950837;28;9128;-63
2022/08/09 02:19:34;;;;;;;;;;;;;;;28.12;35.81;94689.88;4959744;28;7260;-63
2022/08/09 02:22:13;;;;;;;;;;;;;;;28.10;35.92;94686.16;4941513;28;7304;-63
2022/08/09 02:24:46;;;;;;;;;;;;;;;28.10;35.51;94684.13;4946175;28;9413;-63
2022/08/09 02:27:25;;;;;;;;;;;;;;;28.12;35.63;94686.41;4945106;28;6966;-63
2022/08/09 02:30:02;;;;;;;;;;;;;;;28.09;35.73;94685.41;4943793;28;7238;-63
2022/08/09 02:32:31;;;;;;;;;;;;;;;28.09;35.72;94693.72;4944254;28;9094;-63
2022/08/09 02:35:19;;;;;;;;;;;;;;;28.09;35.87;94692.94;4958227;28;7233;-63
2022/08/09 02:37:59;;;;;;;;;;;;;;;28.08;35.36;94685.91;4949906;28;7224;-62
2022/08/09 02:40:35;;;;;;;;;;;;;;;28.06;35.90;94688.44;4960061;28;8170;-63
2022/08/09 02:43:31;;;;;;;;;;;;;;;28.06;35.68;94685.69;4944580;28;8973;-63
2022/08/09 02:46:00;;;;;;;;;;;;;;;28.04;35.40;94685.47;4906373;29;8772;-63
2022/08/09 02:49:04;;;;;;;;;;;;;;;28.04;35.64;94688.22;4944643;28;9237;-63
2022/08/09 02:52:02;;;;;;;;;;;;;;;28.03;35.86;94693.03;4908231;29;9074;-63
2022/08/09 02:54:35;;;;;;;;;;;;;;;28.03;35.55;94695.03;4911554;29;8191;-63
2022/08/09 02:57:04;;;;;;;;;;;;;;;28.01;35.71;94687.28;4906101;29;7912;-63
2022/08/09 02:59:36;;;;;;;;;;;;;;;28.00;35.06;94687.78;4907379;29;9554;-63
2022/08/09 03:02:05;;;;;;;;;;;;;;;28.01;35.58;94686.53;4890269;29;7257;-63
2022/08/09 03:04:39;;;;;;;;;;;;;;;28.00;35.51;94688.53;4906769;29;7017;-63
2022/08/09 03:07:08;;;;;;;;;;;;;;;27.96;35.83;94685.28;4904622;29;7277;-62
2022/08/09 03:09:38;;;;;;;;;;;;;;;27.98;35.68;94687.53;4905436;29;6990;-62
2022/08/09 03:12:05;;;;;;;;;;;;;;;27.98;35.34;94687.53;4905979;29;7015;-63
2022/08/09 03:14:36;;;;;;;;;;;;;;;27.97;35.50;94691.56;4888469;29;9056;-63
2022/08/09 03:17:03;;;;;;;;;;;;;;;27.95;35.85;94683.78;4888577;29;7304;-63
2022/08/09 03:19:31;;;;;;;;;;;;;;;27.95;35.36;94683.78;4905686;29;9076;-63
2022/08/09 03:21:57;;;;;;;;;;;;;;;27.94;35.42;94678.78;4912587;28;7228;-63
2022/08/09 03:24:24;;;;;;;;;;;;;;;27.93;35.76;94680.78;4976869;28;7418;-63
2022/08/09 03:26:52;;;;;;;;;;;;;;;27.91;35.45;94671.50;4998746;28;9139;-63
2022/08/09 03:29:25;;;;;;;;;;;;;;;27.91;35.23;94671.50;5023335;28;7532;-63
2022/08/09 03:31:54;;;;;;;;;;;;;;;27.91;35.86;94677.03;5033505;28;7208;-63
2022/08/09 03:34:22;;;;;;;;;;;;;;;27.92;35.35;94675.78;5035552;28;7241;-63
2022/08/09 03:36:55;;;;;;;;;;;;;;;27.90;35.82;94681.84;5021528;28;9759;-63
2022/08/09 03:39:26;;;;;;;;;;;;;;;27.90;35.03;94681.84;5024020;28;7248;-63
2022/08/09 03:42:07;;;;;;;;;;;;;;;27.87;35.58;94682.09;5041309;28;8300;-63
2022/08/09 03:45:09;;;;;;;;;;;;;;;27.88;35.37;94678.09;5042270;28;8789;-63
2022/08/09 03:47:51;;;;;;;;;;;;;;;27.85;35.69;94681.88;4954254;28;7430;-63
2022/08/09 03:50:28;;;;;;;;;;;;;;;27.85;35.93;94690.16;4937112;28;7195;-63
2022/08/09 03:53:08;;;;;;;;;;;;;;;27.85;35.51;94681.88;4953779;28;7258;-63
2022/08/09 03:56:23;;;;;;;;;;;;;;;27.84;35.34;94685.94;4952260;28;7138;-63
2022/08/09 03:58:49;;;;;;;;;;;;;;;27.83;35.84;94692.72;4889042;29;7223;-63
2022/08/09 04:01:30;;;;;;;;;;;;;;;27.81;35.56;94696.00;4871306;29;7190;-63
2022/08/09 04:04:08;;;;;;;;;;;;;;;27.81;35.46;94692.47;4887326;29;7256;-63
2022/08/09 04:07:06;;;;;;;;;;;;;;;27.80;35.46;94699.25;4876700;29;8771;-63
2022/08/09 04:09:33;;;;;;;;;;;;;;;27.79;35.21;94697.78;4872698;29;7219;-64
2022/08/09 04:12:20;;;;;;;;;;;;;;;27.79;35.42;94695.00;4868701;29;7037;-63
2022/08/09 04:15:07;;;;;;;;;;;;;;;27.77;35.76;94690.00;4870710;29;8795;-63
2022/08/09 04:17:44;;;;;;;;;;;;;;;27.76;35.66;94696.03;4874298;29;10732;-63
2022/08/09 04:20:23;;;;;;;;;;;;;;;27.74;35.62;94693.81;4893105;29;9239;-63
2022/08/09 04:22:49;;;;;;;;;;;;;;;27.74;35.78;94701.34;4886171;29;7269;-64
2022/08/09 04:25:14;;;;;;;;;;;;;;;27.73;35.45;94700.59;4883362;29;9402;-64
2022/08/09 04:27:40;;;;;;;;;;;;;;;27.74;35.26;94706.88;4899179;29;7496;-64
2022/08/09 04:30:13;;;;;;;;;;;;;;;27.72;35.50;94712.16;4883794;29;7359;-63
2022/08/09 04:32:42;;;;;;;;;;;;;;;27.73;34.93;94699.84;4883241;29;7192;-63
2022/08/09 04:35:11;;;;;;;;;;;;;;;27.69;35.73;94702.88;4912604;28;7318;-63
2022/08/09 04:37:38;;;;;;;;;;;;;;;27.69;35.64;94699.41;4953440;28;7495;-63
2022/08/09 04:40:08;;;;;;;;;;;;;;;27.68;35.53;94706.19;4968240;28;7404;-63
2022/08/09 04:42:52;;;;;;;;;;;;;;;27.68;35.45;94697.88;4948686;28;7008;-63
2022/08/09 04:45:26;;;;;;;;;;;;;;;27.69;35.20;94704.91;4983870;28;7273;-63
2022/08/09 04:47:59;;;;;;;;;;;;;;;27.67;35.29;94712.97;5040871;28;7596;-63
2022/08/09 04:50:26;;;;;;;;;;;;;;;27.64;34.99;94709.97;5042403;28;7237;-63
2022/08/09 04:52:52;;;;;;;;;;;;;;;27.66;35.51;94722.53;5022033;28;7241;-63
2022/08/09 04:55:18;;;;;;;;;;;;;;;27.67;35.66;94715.72;5040499;28;6997;-64
2022/08/09 04:58:18;;;;;;;;;;;;;;;27.66;35.58;94722.53;5023264;28;8025;-64
2022/08/09 05:01:13;;;;;;;;;;;;;;;27.64;35.83;94723.78;5022101;28;7251;-64
2022/08/09 05:03:39;;;;;;;;;;;;;;;27.61;36.10;94727.59;4944537;28;7279;-63
2022/08/09 05:06:05;;;;;;;;;;;;;;;27.60;36.74;94726.09;4924168;28;9412;-63
2022/08/09 05:09:00;;;;;;;;;;;;;;;27.62;36.29;94733.88;4934720;28;7508;-63
2022/08/09 05:11:37;;;;;;;;;;;;;;;27.60;36.68;94737.13;4875296;29;9199;-63
2022/08/09 05:14:15;;;;;;;;;;;;;;;27.62;36.32;94736.63;4874915;29;7236;-63
2022/08/09 05:16:42;;;;;;;;;;;;;;;27.60;36.78;94734.38;4873641;29;7238;-63
2022/08/09 05:19:20;;;;;;;;;;;;;;;27.61;36.44;94732.38;4863666;29;9119;-63
2022/08/09 05:21:49;;;;;;;;;;;;;;;27.60;36.49;94730.84;4870188;29;8996;-63
2022/08/09 05:24:15;;;;;;;;;;;;;;;27.58;36.62;94734.13;4838147;29;7227;-63
2022/08/09 05:26:43;;;;;;;;;;;;;;;27.57;36.17;94738.19;4872513;29;7375;-63
2022/08/09 05:29:18;;;;;;;;;;;;;;;27.58;36.35;94747.97;4860879;29;9225;-63
2022/08/09 05:31:47;;;;;;;;;;;;;;;27.56;36.61;94742.19;4871543;29;7217;-62
2022/08/09 05:34:32;;;;;;;;;;;;;;;27.55;36.42;94742.72;4859152;29;7502;-63
2022/08/09 05:37:05;;;;;;;;;;;;;;;27.56;36.85;94750.50;4857164;29;9000;-63
2022/08/09 05:39:41;;;;;;;;;;;;;;;27.55;36.81;94746.25;4895420;28;7264;-63
2022/08/09 05:42:07;;;;;;;;;;;;;;;27.53;36.34;94754.28;4941539;28;7055;-63
2022/08/09 05:44:45;;;;;;;;;;;;;;;27.52;36.87;94752.78;4946230;28;8739;-64
2022/08/09 05:47:16;;;;;;;;;;;;;;;27.52;37.13;94752.03;4976895;28;7848;-63
2022/08/09 05:49:54;;;;;;;;;;;;;;;27.52;37.18;94761.06;5026826;28;7652;-63
2022/08/09 05:52:32;;;;;;;;;;;;;;;27.52;36.83;94763.84;5022501;28;7297;-64
2022/08/09 05:55:19;;;;;;;;;;;;;;;27.52;36.71;94752.78;5039010;28;7823;-63
2022/08/09 05:57:59;;;;;;;;;;;;;;;27.54;36.90;94746.72;5021518;28;9114;-63
2022/08/09 06:00:31;;;;;;;;;;;;;;;27.52;36.95;94749.28;5022369;28;8057;-63
2022/08/09 06:03:04;;;;;;;;;;;;;;;27.52;37.18;94755.56;5020136;28;7287;-63
2022/08/09 06:05:36;;;;;;;;;;;;;;;27.53;37.29;94750.78;5036128;28;6935;-63
2022/08/09 06:08:14;;;;;;;;;;;;;;;27.53;36.91;94754.28;5033283;28;6852;-63
2022/08/09 06:10:40;;;;;;;;;;;;;;;27.54;37.49;94753.03;5025238;28;9061;-64
2022/08/09 06:13:11;;;;;;;;;;;;;;;27.53;37.41;94754.28;5012881;28;7494;-63
2022/08/09 06:15:38;;;;;;;;;;;;;;;27.52;37.31;94758.31;5040001;28;7348;-63
2022/08/09 06:18:05;;;;;;;;;;;;;;;27.52;37.36;94765.84;5038316;28;7282;-63
2022/08/09 06:20:42;;;;;;;;;;;;;;;27.52;37.67;94763.84;5028698;28;9415;-63
2022/08/09 06:23:19;;;;;;;;;;;;;;;27.52;37.65;94763.84;5039158;28;7233;-63
2022/08/09 06:25:45;;;;;;;;;;;;;;;27.53;37.88;94770.13;5023191;28;9100;-63
2022/08/09 06:28:11;;;;;;;;;;;;;;;27.51;37.19;94761.59;5039656;28;7034;-63
2022/08/09 06:30:37;;;;;;;;;;;;;;;27.54;37.72;94766.84;5021363;28;7042;-63
2022/08/09 06:33:05;;;;;;;;;;;;;;;27.53;37.72;94765.31;5039903;28;9035;-63
2022/08/09 06:35:41;;;;;;;;;;;;;;;27.53;37.52;94770.84;5041101;28;7026;-64
2022/08/09 06:38:09;;;;;;;;;;;;;;;27.53;38.03;94772.88;5042491;28;9499;-64
2022/08/09 06:40:37;;;;;;;;;;;;;;;27.53;37.50;94765.31;5030462;28;9403;-64
2022/08/09 06:43:04;;;;;;;;;;;;;;;27.52;38.21;94780.41;5029236;28;7406;-63
2022/08/09 06:45:35;;;;;;;;;;;;;;;27.53;38.20;94773.63;5027090;28;7623;-63
2022/08/09 06:48:16;;;;;;;;;;;;;;;27.51;38.13;94773.38;5022642;28;9238;-63
2022/08/09 06:50:48;;;;;;;;;;;;;;;27.53;37.98;94770.84;5026544;28;7135;-63
2022/08/09 06:53:18;;;;;;;;;;;;;;;27.53;38.75;94775.66;5038345;28;8762;-63
2022/08/09 06:55:49;;;;;;;;;;;;;;;27.53;38.18;94775.66;5028882;28;7243;-63
2022/08/09 06:58:15;;;;;;;;;;;;;;;27.52;38.12;94780.41;5002726;28;7300;-63
2022/08/09 07:00:41;;;;;;;;;;;;;;;27.54;38.22;94779.91;5006407;28;6993;-63
2022/08/09 07:03:33;;;;;;;;;;;;;;;27.55;38.27;94784.16;5019108;28;9480;-63
2022/08/09 07:06:30;;;;;;;;;;;;;;;27.56;38.60;94780.88;5036922;28;7274;-63
2022/08/09 07:08:58;;;;;;;;;;;;;;;27.58;39.11;94783.88;4958817;28;7250;-63
2022/08/09 07:11:33;;;;;;;;;;;;;;;27.57;38.66;94782.41;4962992;28;7344;-63
2022/08/09 07:13:59;;;;;;;;;;;;;;;27.59;38.84;94782.63;4946871;28;8819;-63
2022/08/09 07:16:35;;;;;;;;;;;;;;;27.59;39.09;94779.09;4965870;28;7299;-63
2022/08/09 07:19:11;;;;;;;;;;;;;;;27.59;38.81;94784.63;4965360;28;7212;-63
2022/08/09 07:21:39;;;;;;;;;;;;;;;27.58;38.56;94786.63;4953730;28;7552;-63
2022/08/09 07:24:06;;;;;;;;;;;;;;;27.58;39.33;94783.88;4967345;28;7036;-63
2022/08/09 07:26:33;;;;;;;;;;;;;;;27.58;39.03;94786.63;4960639;28;7909;-63
2022/08/09 07:29:04;;;;;;;;;;;;;;;27.60;38.95;94789.63;4942067;28;7260;-62
2022/08/09 07:31:30;;;;;;;;;;;;;;;27.62;39.25;94787.09;4948863;28;7271;-64
2022/08/09 07:33:58;;;;;;;;;;;;;;;27.62;39.25;94784.34;4958242;28;7174;-64
2022/08/09 07:36:26;;;;;;;;;;;;;;;27.61;38.94;94788.38;4956924;28;8802;-63
2022/08/09 07:38:54;;;;;;;;;;;;;;;27.59;39.67;94787.41;4952765;28;9205;-63
2022/08/09 07:41:21;;;;;;;;;;;;;;;27.60;39.38;94791.66;4957087;28;7029;-63
2022/08/09 07:43:54;;;;;;;;;;;;;;;27.60;39.68;94781.34;4953982;28;7413;-63
2022/08/09 07:46:20;;;;;;;;;;;;;;;27.62;39.59;94789.16;5021126;28;7301;-63
2022/08/09 07:48:57;;;;;;;;;;;;;;;27.63;39.74;94790.63;5041210;28;9773;-63
2022/08/09 07:51:23;;;;;;;;;;;;;;;27.63;39.92;94793.38;5039224;28;7240;-63
2022/08/09 07:53:50;;;;;;;;;;;;;;;27.62;40.13;94792.63;5022339;28;7072;-62
2022/08/09 07:56:16;;;;;;;;;;;;;;;27.63;39.74;94790.63;5020682;28;7019;-63
2022/08/09 07:58:48;;;;;;;;;;;;;;;27.62;39.76;94789.88;5038961;28;7048;-62
2022/08/09 08:01:14;;;;;;;;;;;;;;;27.61;39.91;94785.63;5019263;28;8777;-62
2022/08/09 08:03:40;;;;;;;;;;;;;;;27.61;39.63;94793.16;5021316;28;9040;-63
2022/08/09 08:06:10;;;;;;;;;;;;;;;27.60;40.38;94784.13;5039823;28;7225;-63
2022/08/09 08:08:37;;;;;;;;;;;;;;;27.61;39.50;94782.84;5020052;28;7229;-62
2022/08/09 08:11:05;;;;;;;;;;;;;;;27.63;40.07;94788.63;5020611;28;6979;-62
2022/08/09 08:13:33;;;;;;;;;;;;;;;27.63;39.94;94788.63;5019639;28;7037;-62
2022/08/09 08:16:02;;;;;;;;;;;;;;;27.64;39.51;94781.81;5029649;28;8180;-62
2022/08/09 08:18:37;;;;;;;;;;;;;;;27.64;40.09;94792.13;5017807;28;9152;-62
2022/08/09 08:21:04;;;;;;;;;;;;;;;27.66;39.85;94792.38;5017006;28;9010;-62
2022/08/09 08:23:30;;;;;;;;;;;;;;;27.66;39.46;94783.31;5018950;28;7285;-61
2022/08/09 08:25:58;;;;;;;;;;;;;;;27.64;39.71;94787.34;5016944;28;7268;-63
2022/08/09 08:28:29;;;;;;;;;;;;;;;27.64;39.60;94789.38;5035897;28;7433;-62
2022/08/09 08:30:57;;;;;;;;;;;;;;;27.65;40.05;94790.84;5018564;28;8965;-63
2022/08/09 08:33:25;;;;;;;;;;;;;;;27.66;39.85;94792.38;5019667;28;9555;-63
2022/08/09 08:35:52;;;;;;;;;;;;;;;27.64;39.81;94792.88;5019067;28;9283;-63
2022/08/09 08:38:18;;;;;;;;;;;;;;;27.67;39.52;94793.84;5032606;28;9074;-63
2022/08/09 08:40:45;;;;;;;;;;;;;;;27.67;39.49;94791.09;5026985;28;7150;-63
2022/08/09 08:43:16;;;;;;;;;;;;;;;27.68;39.29;94797.38;5021432;28;6963;-63
2022/08/09 08:45:53;;;;;;;;;;;;;;;27.68;39.50;94787.06;5021461;28;7076;-63
2022/08/09 08:48:21;;;;;;;;;;;;;;;27.67;39.76;94793.84;5022720;28;7240;-63
2022/08/09 08:50:49;;;;;;;;;;;;;;;27.68;40.53;94791.84;5022167;28;7228;-63
2022/08/09 08:53:56;;;;;;;;;;;;;;;27.70;39.58;94797.59;5041108;28;7072;-63
2022/08/09 08:56:35;;;;;;;;;;;;;;;27.70;39.93;94801.13;5022698;28;7579;-62
2022/08/09 08:59:15;;;;;;;;;;;;;;;27.72;39.97;94803.38;5041457;28;7532;-62
2022/08/09 09:01:45;;;;;;;;;;;;;;;27.73;40.15;94799.34;5023874;28;9492;-63
2022/08/09 09:04:17;;;;;;;;;;;;;;;27.72;40.61;94801.38;5022632;28;9446;-62
2022/08/09 09:06:48;;;;;;;;;;;;;;;27.72;40.34;94795.06;5022858;28;9559;-63
2022/08/09 09:09:19;;;;;;;;;;;;;;;27.73;40.38;94796.59;5025184;28;7364;-63
2022/08/09 09:11:50;;;;;;;;;;;;;;;27.72;40.43;94804.13;5024395;28;7332;-63
2022/08/09 09:14:30;;;;;;;;;;;;;;;27.72;40.31;94801.38;5022589;28;7015;-63
2022/08/09 09:17:02;;;;;;;;;;;;;;;27.75;40.41;94805.13;5039430;28;7172;-63
2022/08/09 09:19:29;;;;;;;;;;;;;;;27.74;40.37;94811.91;5024670;28;7018;-63
2022/08/09 09:22:08;;;;;;;;;;;;;;;27.76;40.25;94798.31;5020722;28;7294;-63
2022/08/09 09:24:41;;;;;;;;;;;;;;;27.76;40.15;94801.06;5025418;28;7083;-63
2022/08/09 09:27:11;;;;;;;;;;;;;;;27.75;40.24;94807.88;5024101;28;7670;-63
2022/08/09 09:29:42;;;;;;;;;;;;;;;27.77;39.91;94810.88;5022434;28;9413;-63
2022/08/09 09:32:11;;;;;;;;;;;;;;;27.76;40.28;94815.66;5022251;28;8927;-62
2022/08/09 09:34:42;;;;;;;;;;;;;;;27.78;40.17;94806.84;5019293;28;7250;-62
2022/08/09 09:37:28;;;;;;;;;;;;;;;27.76;40.31;94795.53;5020118;28;9013;-63
2022/08/09 09:39:58;;;;;;;;;;;;;;;27.79;40.03;94802.81;5019444;28;7411;-63
2022/08/09 09:42:32;;;;;;;;;;;;;;;27.80;40.69;94807.06;5038844;28;7989;-63
2022/08/09 09:45:04;;;;;;;;;;;;;;;27.80;40.20;94801.53;5025529;28;9127;-63
2022/08/09 09:47:32;;;;;;;;;;;;;;;27.81;40.41;94805.81;5023132;28;7908;-63
2022/08/09 09:50:09;;;;;;;;;;;;;;;27.81;39.87;94798.28;5030324;28;7401;-62
2022/08/09 09:53:02;;;;;;;;;;;;;;;27.84;40.16;94799.25;5023439;28;9244;-63
2022/08/09 09:56:00;;;;;;;;;;;;;;;27.82;40.22;94796.25;5036880;28;9424;-63
2022/08/09 09:58:56;;;;;;;;;;;;;;;27.86;39.89;94797.47;4993338;28;9240;-63
2022/08/09 10:01:22;;;;;;;;;;;;;;;27.85;40.32;94790.44;5041223;28;6989;-63
2022/08/09 10:03:50;;;;;;;;;;;;;;;27.86;40.40;94794.69;5020534;28;8766;-63
2022/08/09 10:06:17;;;;;;;;;;;;;;;27.88;40.00;94797.72;5028759;28;8765;-63
2022/08/09 10:08:49;;;;;;;;;;;;;;;27.90;39.82;94802.72;5040618;28;9290;-63
2022/08/09 10:11:18;;;;;;;;;;;;;;;27.87;39.76;94792.69;5022878;28;7216;-63
2022/08/09 10:13:44;;;;;;;;;;;;;;;27.90;39.96;94802.72;5028350;28;7878;-63
2022/08/09 10:16:10;;;;;;;;;;;;;;;27.91;39.93;94799.44;5041556;28;7024;-63
2022/08/09 10:18:58;;;;;;;;;;;;;;;27.92;39.95;94805.72;5041153;28;7019;-63
2022/08/09 10:21:29;;;;;;;;;;;;;;;27.95;40.06;94805.41;5019586;28;9386;-63
2022/08/09 10:24:25;;;;;;;;;;;;;;;27.95;39.87;94810.94;5036442;28;7235;-62
2022/08/09 10:26:55;;;;;;;;;;;;;;;27.99;39.76;94813.47;4939754;28;8453;-63
2022/08/09 10:29:23;;;;;;;;;;;;;;;27.99;39.88;94802.41;4927550;29;8701;-62
2022/08/09 10:31:51;;;;;;;;;;;;;;;27.99;39.70;94805.19;4926575;29;7654;-63
2022/08/09 10:34:22;;;;;;;;;;;;;;;27.99;39.63;94803.16;4927673;29;7701;-62
2022/08/09 10:36:55;;;;;;;;;;;;;;;27.99;39.86;94805.91;4933237;28;9080;-62
2022/08/09 10:39:23;;;;;;;;;;;;;;;27.99;39.70;94803.16;4933296;28;7243;-62
2022/08/09 10:41:50;;;;;;;;;;;;;;;27.98;39.63;94807.19;4932383;29;6986;-63
2022/08/09 10:44:25;;;;;;;;;;;;;;;27.98;39.85;94798.16;4931513;28;7183;-62
2022/08/09 10:46:53;;;;;;;;;;;;;;;27.95;39.72;94799.16;4921993;28;7350;-63
2022/08/09 10:49:34;;;;;;;;;;;;;;;27.95;39.98;94796.41;4937693;28;7503;-63
2022/08/09 10:52:31;;;;;;;;;;;;;;;27.97;39.85;94793.88;4929077;28;7279;-63
2022/08/09 10:55:21;;;;;;;;;;;;;;;27.95;39.57;94807.47;4939038;28;9081;-63
2022/08/09 10:57:50;;;;;;;;;;;;;;;27.97;39.81;94805.69;4937873;28;6857;-63
2022/08/09 11:00:30;;;;;;;;;;;;;;;27.97;39.97;94808.44;4937182;28;7058;-63
2022/08/09 11:02:57;;;;;;;;;;;;;;;27.97;39.41;94802.16;4959525;28;7302;-63
2022/08/09 11:05:26;;;;;;;;;;;;;;;27.97;39.45;94791.84;5036113;28;8752;-63
2022/08/09 11:07:52;;;;;;;;;;;;;;;28.00;39.43;94798.38;5017274;28;7018;-62
2022/08/09 11:10:47;;;;;;;;;;;;;;;28.01;39.47;94794.34;5018729;28;7012;-62
2022/08/09 11:13:18;;;;;;;;;;;;;;;28.00;39.99;94801.91;5020447;28;7076;-63
2022/08/09 11:15:47;;;;;;;;;;;;;;;28.04;39.76;94799.59;5020510;28;7235;-62
2022/08/09 11:18:44;;;;;;;;;;;;;;;28.05;39.60;94795.56;5018057;28;7484;-62
2022/08/09 11:21:50;;;;;;;;;;;;;;;28.07;39.46;94797.81;5018063;28;9032;-62
2022/08/09 11:24:20;;;;;;;;;;;;;;;28.08;39.70;94791.00;4927531;28;7311;-62
2022/08/09 11:26:49;;;;;;;;;;;;;;;28.07;39.84;94800.56;4930536;28;7287;-62
2022/08/09 11:29:51;;;;;;;;;;;;;;;28.09;39.49;94796.03;4944358;28;7237;-62
2022/08/09 11:32:38;;;;;;;;;;;;;;;28.08;39.61;94807.59;4882980;29;7208;-62
2022/08/09 11:35:07;;;;;;;;;;;;;;;28.08;39.75;94813.13;4868695;29;9092;-62
2022/08/09 11:37:37;;;;;;;;;;;;;;;28.06;39.05;94805.34;4889208;29;7287;-62
2022/08/09 11:40:26;;;;;;;;;;;;;;;28.06;39.69;94808.13;4876763;29;7715;-62
2022/08/09 11:43:04;;;;;;;;;;;;;;;28.07;39.65;94809.63;4877421;29;8729;-62
2022/08/09 11:45:41;;;;;;;;;;;;;;;28.09;39.85;94807.09;4890037;29;7160;-62
2022/08/09 11:48:19;;;;;;;;;;;;;;;28.09;39.60;94798.03;4894179;29;7525;-62
2022/08/09 11:51:14;;;;;;;;;;;;;;;28.08;39.54;94802.81;4877991;29;9476;-63
2022/08/09 11:54:17;;;;;;;;;;;;;;;28.10;39.48;94805.09;4866820;29;8101;-62
2022/08/09 11:57:27;;;;;;;;;;;;;;;28.12;39.63;94802.53;4824610;29;8636;-63
2022/08/09 12:00:09;;;;;;;;;;;;;;;28.13;39.61;94799.25;4837063;29;7268;-62
2022/08/09 12:02:45;;;;;;;;;;;;;;;28.14;39.36;94800.00;4854954;29;6988;-62
2022/08/09 12:05:21;;;;;;;;;;;;;;;28.15;39.92;94802.25;4857591;29;9006;-62
2022/08/09 12:07:50;;;;;;;;;;;;;;;28.16;39.51;94795.47;4900523;28;7906;-62
2022/08/09 12:10:23;;;;;;;;;;;;;;;28.13;39.64;94799.25;4931039;28;7007;-62
2022/08/09 12:12:49;;;;;;;;;;;;;;;28.13;39.56;94792.97;4931322;28;8890;-62
2022/08/09 12:15:45;;;;;;;;;;;;;;;28.14;39.69;94797.25;4951935;28;7506;-62
2022/08/09 12:18:18;;;;;;;;;;;;;;;28.16;39.35;94789.19;4933123;28;7416;-63
2022/08/09 12:20:45;;;;;;;;;;;;;;;28.18;39.66;94800.47;4951466;28;7033;-62
2022/08/09 12:23:33;;;;;;;;;;;;;;;28.22;39.48;94792.63;4949887;28;9283;-62
2022/08/09 12:26:01;;;;;;;;;;;;;;;28.22;39.54;94789.88;4929002;28;9654;-62
2022/08/09 12:28:28;;;;;;;;;;;;;;;28.22;39.74;94798.91;4934136;28;7242;-63
2022/08/09 12:30:57;;;;;;;;;;;;;;;28.23;39.56;94797.63;4928562;28;9458;-62
2022/08/09 12:33:42;;;;;;;;;;;;;;;28.23;39.64;94799.66;5016365;28;7044;-62
2022/08/09 12:36:50;;;;;;;;;;;;;;;28.23;39.85;94796.91;5028571;28;7228;-62
2022/08/09 12:39:40;;;;;;;;;;;;;;;28.26;39.39;94799.38;4933206;28;7005;-62
2022/08/09 12:42:09;;;;;;;;;;;;;;;28.27;39.61;94789.06;4929539;28;7364;-62
2022/08/09 12:44:43;;;;;;;;;;;;;;;28.29;38.99;94801.13;4928884;28;9115;-62
2022/08/09 12:47:21;;;;;;;;;;;;;;;28.31;39.45;94801.34;4938892;28;7023;-63
2022/08/09 12:50:16;;;;;;;;;;;;;;;28.32;39.51;94796.53;4946029;28;7919;-63
2022/08/09 12:52:43;;;;;;;;;;;;;;;28.33;39.28;94786.97;4944373;28;7682;-63
2022/08/09 12:55:10;;;;;;;;;;;;;;;28.34;39.13;94797.53;4945082;28;7613;-63
2022/08/09 12:57:39;;;;;;;;;;;;;;;28.34;39.58;94799.53;4924821;28;8775;-63
2022/08/09 13:00:20;;;;;;;;;;;;;;;28.35;39.27;94795.50;4928213;28;9363;-63
2022/08/09 13:03:00;;;;;;;;;;;;;;;28.37;39.43;94792.97;4947088;28;9689;-63
2022/08/09 13:05:48;;;;;;;;;;;;;;;28.38;39.58;94797.25;4931652;28;6993;-63
2022/08/09 13:08:19;;;;;;;;;;;;;;;28.39;39.67;94787.66;4941312;28;9028;-64
2022/08/09 13:10:53;;;;;;;;;;;;;;;28.38;39.04;94792.44;4942649;28;7224;-63
2022/08/09 13:13:33;;;;;;;;;;;;;;;28.39;39.77;94787.66;4941973;28;7859;-63
2022/08/09 13:16:00;;;;;;;;;;;;;;;28.40;39.57;94783.63;5005133;28;9145;-63
2022/08/09 13:18:31;;;;;;;;;;;;;;;28.42;39.56;94777.56;5033663;28;7249;-63
2022/08/09 13:20:57;;;;;;;;;;;;;;;28.44;39.52;94778.56;5035923;28;9459;-62
2022/08/09 13:23:42;;;;;;;;;;;;;;;28.43;39.79;94779.81;5020386;28;9796;-63
2022/08/09 13:26:11;;;;;;;;;;;;;;;28.44;39.84;94783.34;5017954;28;7283;-62
2022/08/09 13:28:37;;;;;;;;;;;;;;;28.43;39.16;94784.63;5018494;28;7314;-62
2022/08/09 13:31:10;;;;;;;;;;;;;;;28.44;39.73;94772.28;5019204;28;7265;-62
2022/08/09 13:33:36;;;;;;;;;;;;;;;28.44;39.64;94778.56;5016189;28;9558;-62
2022/08/09 13:36:06;;;;;;;;;;;;;;;28.45;39.68;94776.53;5029404;28;7075;-62
2022/08/09 13:38:32;;;;;;;;;;;;;;;28.44;39.79;94773.03;5014476;28;8746;-62